createdAt,value
2023-05-14T00:02:56.309Z,1014.7
2023-05-14T00:09:02.275Z,1014.6
2023-05-14T00:15:07.753Z,1014.5
2023-05-14T00:21:13.281Z,1014.5
2023-05-14T00:27:19.657Z,1014.5
2023-05-14T00:33:24.755Z,1014.4
2023-05-14T00:39:29.832Z,1014.4
2023-05-14T00:45:35.782Z,1014.5
2023-05-14T00:51:41.559Z,1014.4
2023-05-14T00:57:47.934Z,1014.4
2023-05-14T01:03:54.061Z,1014.4
2023-05-14T01:09:59.926Z,1014.4
2023-05-14T01:16:05.921Z,1014.4
2023-05-14T01:22:11.715Z,1014.4
2023-05-14T01:28:17.446Z,1014.2
2023-05-14T01:34:23.447Z,1014.2
2023-05-14T01:40:29.171Z,1014.1
2023-05-14T01:46:35.669Z,1014.1
2023-05-14T01:52:41.204Z,1014.2
2023-05-14T01:58:46.610Z,1014
2023-05-14T02:04:51.957Z,1014
2023-05-14T02:10:57.088Z,1014
2023-05-14T02:17:03.475Z,1014
2023-05-14T02:23:09.078Z,1014
2023-05-14T02:29:14.596Z,1014
2023-05-14T02:35:20.839Z,1014
2023-05-14T02:41:26.560Z,1014
2023-05-14T02:47:32.442Z,1014
2023-05-14T02:53:41.038Z,1013.9
2023-05-14T02:59:47.572Z,1013.9
2023-05-14T03:05:53.449Z,1013.9
2023-05-14T03:11:58.729Z,1013.9
2023-05-14T03:18:04.608Z,1013.8
2023-05-14T03:24:09.587Z,1013.8
2023-05-14T03:30:14.841Z,1013.8
2023-05-14T03:36:20.669Z,1013.8
2023-05-14T03:42:25.968Z,1013.7
2023-05-14T03:48:32.324Z,1013.8
2023-05-14T03:54:38.029Z,1013.7
2023-05-14T04:00:43.563Z,1013.7
2023-05-14T04:06:49.779Z,1013.7
2023-05-14T04:12:55.108Z,1013.7
2023-05-14T04:19:01.161Z,1013.7
2023-05-14T04:25:07.263Z,1013.7
2023-05-14T04:31:13.235Z,1013.8
2023-05-14T04:37:18.380Z,1013.8
2023-05-14T04:43:24.793Z,1013.8
2023-05-14T04:49:29.797Z,1013.8
2023-05-14T04:55:34.969Z,1013.8
2023-05-14T05:01:40.765Z,1013.8
2023-05-14T05:07:46.462Z,1013.8
2023-05-14T05:13:51.880Z,1013.9
2023-05-14T05:19:57.066Z,1013.9
2023-05-14T05:26:02.993Z,1013.9
2023-05-14T05:32:08.406Z,1013.9
2023-05-14T05:38:13.132Z,1013.9
2023-05-14T05:44:19.283Z,1013.8
2023-05-14T05:50:24.898Z,1013.9
2023-05-14T05:56:31.236Z,1013.9
2023-05-14T06:02:36.924Z,1013.8
2023-05-14T06:08:43.238Z,1013.9
2023-05-14T06:14:48.999Z,1013.9
2023-05-14T06:20:54.816Z,1013.8
2023-05-14T06:27:00.536Z,1013.8
2023-05-14T06:33:06.392Z,1013.8
2023-05-14T06:39:12.000Z,1013.9
2023-05-14T06:45:17.458Z,1013.8
2023-05-14T06:51:23.312Z,1013.8
2023-05-14T06:57:29.031Z,1013.9
2023-05-14T07:03:34.600Z,1013.9
2023-05-14T07:09:40.794Z,1013.8
2023-05-14T07:15:46.804Z,1013.6
2023-05-14T07:21:52.154Z,1013.6
2023-05-14T07:27:58.298Z,1013.5
2023-05-14T07:34:03.012Z,1013.5
2023-05-14T07:40:08.848Z,1013.5
2023-05-14T07:46:14.810Z,1013.4
2023-05-14T07:52:21.012Z,1013.4
2023-05-14T07:58:26.234Z,1013.4
2023-05-14T08:04:31.994Z,1013.3
2023-05-14T08:10:37.576Z,1013.5
2023-05-14T08:16:43.183Z,1013.5
2023-05-14T08:22:48.950Z,1013.5
2023-05-14T08:28:53.809Z,1013.5
2023-05-14T08:34:59.634Z,1013.5
2023-05-14T08:41:04.993Z,1013.4
2023-05-14T08:47:10.756Z,1013.4
2023-05-14T08:53:16.768Z,1013.4
2023-05-14T08:59:22.176Z,1013.4
2023-05-14T09:05:27.775Z,1013.4
2023-05-14T09:11:32.706Z,1013.3
2023-05-14T09:17:38.682Z,1013.3
2023-05-14T09:23:44.667Z,1013.3
2023-05-14T09:29:50.183Z,1013.2
2023-05-14T09:35:58.279Z,1013.3
2023-05-14T09:42:04.595Z,1013.4
2023-05-14T09:48:10.375Z,1013.4
2023-05-14T09:54:15.805Z,1013.3
2023-05-14T10:00:21.847Z,1013.2
2023-05-14T10:06:27.612Z,1013.2
2023-05-14T10:12:33.489Z,1013.2
2023-05-14T10:18:39.166Z,1013.2
2023-05-14T10:24:45.041Z,1013.3
2023-05-14T10:30:50.401Z,1013.3
2023-05-14T10:36:55.980Z,1013.3
2023-05-14T10:43:01.969Z,1013.4
2023-05-14T10:49:07.948Z,1013.3
2023-05-14T10:55:13.310Z,1013.3
2023-05-14T11:01:18.978Z,1013.2
2023-05-14T11:07:24.472Z,1013.2
2023-05-14T11:13:30.077Z,1013.1
2023-05-14T11:19:35.664Z,1013.1
2023-05-14T11:25:41.607Z,1012.9
2023-05-14T11:31:47.263Z,1013
2023-05-14T11:37:52.581Z,1013
2023-05-14T11:43:58.585Z,1012.9
2023-05-14T11:50:04.311Z,1012.8
2023-05-14T11:56:13.553Z,1012.7
2023-05-14T12:02:19.139Z,1012.6
2023-05-14T12:08:24.348Z,1012.6
2023-05-14T12:14:30.080Z,1012.5
2023-05-14T12:20:35.903Z,1012.4
2023-05-14T12:26:41.883Z,1012.3
2023-05-14T12:32:47.844Z,1012.3
2023-05-14T12:38:54.543Z,1012.2
2023-05-14T12:45:00.253Z,1012.1
2023-05-14T12:51:05.812Z,1012
2023-05-14T12:57:11.606Z,1012
2023-05-14T13:03:16.783Z,1012
2023-05-14T13:09:23.076Z,1012
2023-05-14T13:15:28.538Z,1011.8
2023-05-14T13:21:34.437Z,1011.7
2023-05-14T13:27:39.679Z,1011.6
2023-05-14T13:33:45.386Z,1011.6
2023-05-14T13:39:53.207Z,1011.5
2023-05-14T13:45:58.994Z,1011.5
2023-05-14T13:52:04.592Z,1011.4
2023-05-14T13:58:09.983Z,1011.3
2023-05-14T14:04:15.717Z,1011.2
2023-05-14T14:10:21.260Z,1011.2
2023-05-14T14:16:26.333Z,1011.1
2023-05-14T14:22:32.215Z,1011.1
2023-05-14T14:28:37.879Z,1011
2023-05-14T14:34:43.178Z,1010.8
2023-05-14T14:40:49.332Z,1010.8
2023-05-14T14:46:54.923Z,1010.8
2023-05-14T14:53:00.492Z,1010.8
2023-05-14T14:59:05.509Z,1010.8
2023-05-14T15:05:11.862Z,1010.8
2023-05-14T15:11:17.611Z,1010.8
2023-05-14T15:17:23.815Z,1010.7
2023-05-14T15:23:29.248Z,1010.7
2023-05-14T15:29:34.344Z,1010.7
2023-05-14T15:35:40.328Z,1010.7
2023-05-14T15:41:45.896Z,1010.6
2023-05-14T15:47:51.901Z,1010.7
2023-05-14T15:53:57.297Z,1010.6
2023-05-14T16:00:03.636Z,1010.6
2023-05-14T16:06:08.641Z,1010.9
2023-05-14T16:12:14.388Z,1010.8
2023-05-14T16:18:20.127Z,1010.9
2023-05-14T16:24:25.735Z,1010.9
2023-05-14T16:30:31.094Z,1011
2023-05-14T16:36:36.107Z,1011.2
2023-05-14T16:42:41.644Z,1011.2
2023-05-14T16:48:47.804Z,1011.2
2023-05-14T16:54:53.375Z,1011.3
2023-05-14T17:00:59.383Z,1011.4
2023-05-14T17:07:04.795Z,1011.2
2023-05-14T17:13:10.908Z,1011.3
2023-05-14T17:19:16.570Z,1011.3
2023-05-14T17:25:21.967Z,1011.3
2023-05-14T17:31:28.667Z,1011.3
2023-05-14T17:37:34.435Z,1011.3
2023-05-14T17:43:39.865Z,1011.3
2023-05-14T17:49:45.972Z,1011.4
2023-05-14T17:55:50.830Z,1011.3
2023-05-14T18:01:56.126Z,1011.3
2023-05-14T18:08:01.494Z,1011.4
2023-05-14T18:14:06.723Z,1011.4
2023-05-14T18:20:12.245Z,1011.3
2023-05-14T18:26:17.672Z,1011.3
2023-05-14T18:32:23.161Z,1011.3
2023-05-14T18:38:28.603Z,1011.4
2023-05-14T18:44:33.973Z,1011.4
2023-05-14T18:50:41.112Z,1011.5
2023-05-14T18:56:49.147Z,1011.5
2023-05-14T19:02:54.611Z,1011.5
2023-05-14T19:09:00.776Z,1011.6
2023-05-14T19:15:06.162Z,1011.6
2023-05-14T19:21:12.876Z,1011.6
2023-05-14T19:27:18.285Z,1011.6
2023-05-14T19:33:24.071Z,1011.6
2023-05-14T19:39:30.029Z,1011.7
2023-05-14T19:45:35.777Z,1011.7
2023-05-14T19:51:40.742Z,1011.6
2023-05-14T19:57:46.553Z,1011.6
2023-05-14T20:03:51.897Z,1011.5
2023-05-14T20:09:57.910Z,1011.6
2023-05-14T20:16:03.232Z,1011.6
2023-05-14T20:22:09.427Z,1011.6
2023-05-14T20:28:14.672Z,1011.6
2023-05-14T20:34:20.361Z,1011.6
2023-05-14T20:40:26.628Z,1011.6
2023-05-14T20:46:32.236Z,1011.6
2023-05-14T20:52:37.876Z,1011.5
2023-05-14T20:58:43.686Z,1011.5
2023-05-14T21:04:49.348Z,1011.5
2023-05-14T21:10:55.445Z,1011.5
2023-05-14T21:17:01.426Z,1011.4
2023-05-14T21:23:06.831Z,1011.5
2023-05-14T21:29:12.771Z,1011.4
2023-05-14T21:35:18.933Z,1011.4
2023-05-14T21:41:24.758Z,1011.3
2023-05-14T21:47:30.633Z,1011.4
2023-05-14T21:53:36.557Z,1011.4
2023-05-14T21:59:42.461Z,1011.4
2023-05-14T22:05:49.055Z,1011.4
2023-05-14T22:11:55.088Z,1011.3
2023-05-14T22:18:00.990Z,1011.3
2023-05-14T22:24:06.257Z,1011.3
2023-05-14T22:30:12.163Z,1011.3
2023-05-14T22:36:17.830Z,1011.3
2023-05-14T22:42:23.555Z,1011.2
2023-05-14T22:48:29.900Z,1011.2
2023-05-14T22:54:36.111Z,1011.2
2023-05-14T23:00:42.435Z,1011.1
2023-05-14T23:06:48.496Z,1011.1
2023-05-14T23:12:54.670Z,1011.2
2023-05-14T23:19:01.088Z,1011.1
2023-05-14T23:25:07.729Z,1011.1
2023-05-14T23:31:13.457Z,1011.1
2023-05-14T23:37:19.827Z,1011
2023-05-14T23:43:25.384Z,1010.9
2023-05-14T23:49:30.772Z,1010.9
2023-05-14T23:55:36.333Z,1010.9
